sensor_id;sensor_type;location;lat;lon;timestamp;pressure;altitude;pressure_sealevel;temperature
72236;BMP280;60146;52.498;13.462;2023-03-04T16:59:12;101263.75;;;8.51
72236;BMP280;60146;52.498;13.462;2023-03-04T17:01:39;101261.16;;;8.51
72236;BMP280;60146;52.498;13.462;2023-03-04T17:04:04;101267.75;;;8.59
72236;BMP280;60146;52.498;13.462;2023-03-04T17:06:29;101272.63;;;8.50
72236;BMP280;60146;52.498;13.462;2023-03-04T17:08:55;101269.03;;;8.56
72236;BMP280;60146;52.498;13.462;2023-03-04T17:11:22;101267.94;;;8.52
72236;BMP280;60146;52.498;13.462;2023-03-04T17:13:49;101275.25;;;8.50
72236;BMP280;60146;52.498;13.462;2023-03-04T17:16:15;101270.03;;;8.50
72236;BMP280;60146;52.498;13.462;2023-03-04T17:18:41;101266.38;;;8.51
72236;BMP280;60146;52.498;13.462;2023-03-04T17:21:10;101271.00;;;8.45
72236;BMP280;60146;52.498;13.462;2023-03-04T17:23:36;101278.84;;;8.45
72236;BMP280;60146;52.498;13.462;2023-03-04T17:26:06;101278.59;;;8.46
72236;BMP280;60146;52.498;13.462;2023-03-04T17:28:33;101291.31;;;8.38
72236;BMP280;60146;52.498;13.462;2023-03-04T17:30:59;101283.72;;;8.36
72236;BMP280;60146;52.498;13.462;2023-03-04T17:33:24;101286.88;;;8.38
72236;BMP280;60146;52.498;13.462;2023-03-04T17:35:50;101288.22;;;8.41
72236;BMP280;60146;52.498;13.462;2023-03-04T17:38:16;101287.75;;;8.49
72236;BMP280;60146;52.498;13.462;2023-03-04T17:40:41;101286.88;;;8.38
72236;BMP280;60146;52.498;13.462;2023-03-04T17:43:10;101290.31;;;8.44
72236;BMP280;60146;52.498;13.462;2023-03-04T17:45:40;101287.19;;;8.42
72236;BMP280;60146;52.498;13.462;2023-03-04T17:48:06;101290.00;;;8.40
72236;BMP280;60146;52.498;13.462;2023-03-04T17:50:33;101281.47;;;8.45
72236;BMP280;60146;52.498;13.462;2023-03-04T17:52:58;101288.16;;;8.36
72236;BMP280;60146;52.498;13.462;2023-03-04T17:55:24;101287.13;;;8.37
72236;BMP280;60146;52.498;13.462;2023-03-04T17:57:49;101285.06;;;8.39
72236;BMP280;60146;52.498;13.462;2023-03-04T18:00:20;101282.44;;;8.39
72236;BMP280;60146;52.498;13.462;2023-03-04T18:02:46;101289.16;;;8.30
72236;BMP280;60146;52.498;13.462;2023-03-04T18:05:11;101284.72;;;8.30
72236;BMP280;60146;52.498;13.462;2023-03-04T18:07:36;101289.66;;;8.27
72236;BMP280;60146;52.498;13.462;2023-03-04T18:10:05;101285.84;;;8.13
72236;BMP280;60146;52.498;13.462;2023-03-04T18:12:31;101285.34;;;8.16
72236;BMP280;60146;52.498;13.462;2023-03-04T18:14:56;101290.69;;;8.26
72236;BMP280;60146;52.498;13.462;2023-03-04T18:17:22;101290.94;;;8.25
72236;BMP280;60146;52.498;13.462;2023-03-04T18:19:47;101282.22;;;8.14
72236;BMP280;60146;52.498;13.462;2023-03-04T18:22:13;101277.53;;;8.16
72236;BMP280;60146;52.498;13.462;2023-03-04T18:24:39;101279.66;;;8.19
72236;BMP280;60146;52.498;13.462;2023-03-04T18:27:05;101284.88;;;8.19
72236;BMP280;60146;52.498;13.462;2023-03-04T18:29:31;101282.25;;;8.19
72236;BMP280;60146;52.498;13.462;2023-03-04T18:31:58;101286.69;;;8.19
72236;BMP280;60146;52.498;13.462;2023-03-04T18:34:24;101287.19;;;8.16
72236;BMP280;60146;52.498;13.462;2023-03-04T18:36:49;101280.16;;;8.21
72236;BMP280;60146;52.498;13.462;2023-03-04T18:39:16;101279.84;;;8.13
72236;BMP280;60146;52.498;13.462;2023-03-04T18:41:44;101280.97;;;8.22
72236;BMP280;60146;52.498;13.462;2023-03-04T18:44:10;101280.63;;;8.13
72236;BMP280;60146;52.498;13.462;2023-03-04T18:46:46;101278.56;;;8.15
72236;BMP280;60146;52.498;13.462;2023-03-04T18:49:13;101281.66;;;8.12
72236;BMP280;60146;52.498;13.462;2023-03-04T18:51:39;101275.63;;;8.12
72236;BMP280;60146;52.498;13.462;2023-03-04T18:54:04;101272.00;;;8.13
72236;BMP280;60146;52.498;13.462;2023-03-04T18:56:50;101283.72;;;8.10
72236;BMP280;60146;52.498;13.462;2023-03-04T18:59:51;101279.84;;;8.13
72236;BMP280;60146;52.498;13.462;2023-03-04T19:04:44;101279.78;;;8.08
72236;BMP280;60146;52.498;13.462;2023-03-04T19:07:10;101291.19;;;8.02
72236;BMP280;60146;52.498;13.462;2023-03-04T19:09:36;101280.03;;;8.07
72236;BMP280;60146;52.498;13.462;2023-03-04T19:12:01;101285.00;;;8.08
72236;BMP280;60146;52.498;13.462;2023-03-04T19:14:27;101289.94;;;8.05
72236;BMP280;60146;52.498;13.462;2023-03-04T19:16:52;101283.72;;;8.10
72236;BMP280;60146;52.498;13.462;2023-03-04T19:19:18;101286.75;;;8.03
72236;BMP280;60146;52.498;13.462;2023-03-04T19:21:43;101288.06;;;8.00
72236;BMP280;60146;52.498;13.462;2023-03-04T19:24:08;101288.53;;;7.97
72236;BMP280;60146;52.498;13.462;2023-03-04T19:26:34;101287.28;;;8.00
72236;BMP280;60146;52.498;13.462;2023-03-04T19:28:59;101285.16;;;8.02
72236;BMP280;60146;52.498;13.462;2023-03-04T19:31:25;101282.94;;;8.10
72236;BMP280;60146;52.498;13.462;2023-03-04T19:33:56;101288.91;;;8.06
72236;BMP280;60146;52.498;13.462;2023-03-04T19:36:21;101291.47;;;8.01
72236;BMP280;60146;52.498;13.462;2023-03-04T19:38:47;101289.34;;;7.98
72236;BMP280;60146;52.498;13.462;2023-03-04T19:41:15;101289.69;;;8.06
72236;BMP280;60146;52.498;13.462;2023-03-04T19:43:41;101290.41;;;8.02
72236;BMP280;60146;52.498;13.462;2023-03-04T19:46:08;101289.94;;;8.05
72236;BMP280;60146;52.498;13.462;2023-03-04T19:48:35;101288.91;;;8.06
72236;BMP280;60146;52.498;13.462;2023-03-04T19:51:01;101293.63;;;8.08
72236;BMP280;60146;52.498;13.462;2023-03-04T19:53:31;101293.53;;;7.99
72236;BMP280;60146;52.498;13.462;2023-03-04T19:56:00;101289.34;;;7.98
72236;BMP280;60146;52.498;13.462;2023-03-04T19:58:25;101288.78;;;7.96
72236;BMP280;60146;52.498;13.462;2023-03-04T20:00:51;101291.84;;;7.93
72236;BMP280;60146;52.498;13.462;2023-03-04T20:03:18;101295.59;;;7.97
72236;BMP280;60146;52.498;13.462;2023-03-04T20:05:44;101294.47;;;7.93
72236;BMP280;60146;52.498;13.462;2023-03-04T20:08:10;101294.56;;;7.98
72236;BMP280;60146;52.498;13.462;2023-03-04T20:10:36;101298.19;;;7.97
72236;BMP280;60146;52.498;13.462;2023-03-04T20:13:03;101305.44;;;7.90
72236;BMP280;60146;52.498;13.462;2023-03-04T20:15:28;101298.91;;;7.92
72236;BMP280;60146;52.498;13.462;2023-03-04T20:17:53;101299.47;;;7.94
72236;BMP280;60146;52.498;13.462;2023-03-04T20:20:19;101303.97;;;7.78
72236;BMP280;60146;52.498;13.462;2023-03-04T20:22:44;101299.56;;;7.83
72236;BMP280;60146;52.498;13.462;2023-03-04T20:25:10;101294.88;;;7.80
72236;BMP280;60146;52.498;13.462;2023-03-04T20:27:35;101300.69;;;7.87
72236;BMP280;60146;52.498;13.462;2023-03-04T20:30:01;101306.72;;;7.71
72236;BMP280;60146;52.498;13.462;2023-03-04T20:32:26;101300.25;;;7.74
72236;BMP280;60146;52.498;13.462;2023-03-04T20:34:52;101308.84;;;7.74
72236;BMP280;60146;52.498;13.462;2023-03-04T20:37:21;101310.34;;;7.66
72236;BMP280;60146;52.498;13.462;2023-03-04T20:39:47;101318.06;;;7.61
72236;BMP280;60146;52.498;13.462;2023-03-04T20:42:15;101325.91;;;7.61
72236;BMP280;60146;52.498;13.462;2023-03-04T20:44:41;101323.03;;;7.62
72236;BMP280;60146;52.498;13.462;2023-03-04T20:47:06;101317.00;;;7.57
72236;BMP280;60146;52.498;13.462;2023-03-04T20:49:32;101319.38;;;7.58
72236;BMP280;60146;52.498;13.462;2023-03-04T20:52:01;101318.72;;;7.51
72236;BMP280;60146;52.498;13.462;2023-03-04T20:54:34;101312.72;;;7.51
72236;BMP280;60146;52.498;13.462;2023-03-04T20:57:00;101309.59;;;7.49
72236;BMP280;60146;52.498;13.462;2023-03-04T20:59:26;101309.59;;;7.49
72236;BMP280;60146;52.498;13.462;2023-03-04T21:01:51;101297.34;;;7.49
72236;BMP280;60146;52.498;13.462;2023-03-04T21:04:17;101300.66;;;7.45
72236;BMP280;60146;52.498;13.462;2023-03-04T21:06:43;101311.00;;;7.40
72236;BMP280;60146;52.498;13.462;2023-03-04T21:09:14;101312.09;;;7.44
72236;BMP280;60146;52.498;13.462;2023-03-04T21:11:40;101313.13;;;7.43
72236;BMP280;60146;52.498;13.462;2023-03-04T21:14:29;101311.13;;;7.29
72236;BMP280;60146;52.498;13.462;2023-03-04T21:16:57;101303.47;;;7.23
72236;BMP280;60146;52.498;13.462;2023-03-04T21:19:29;101297.69;;;7.21
72236;BMP280;60146;52.498;13.462;2023-03-04T21:21:56;101297.63;;;7.16
72236;BMP280;60146;52.498;13.462;2023-03-04T21:24:25;101289.63;;;7.06
72236;BMP280;60146;52.498;13.462;2023-03-04T21:26:51;101291.44;;;7.05
72236;BMP280;60146;52.498;13.462;2023-03-04T21:29:18;101279.72;;;7.03
72236;BMP280;60146;52.498;13.462;2023-03-04T21:31:46;101275.06;;;7.05
72236;BMP280;60146;52.498;13.462;2023-03-04T21:34:22;101281.81;;;7.06
72236;BMP280;60146;52.498;13.462;2023-03-04T21:36:48;101276.38;;;7.07
72236;BMP280;60146;52.498;13.462;2023-03-04T21:39:16;101273.31;;;7.10
72236;BMP280;60146;52.498;13.462;2023-03-04T21:41:41;101267.94;;;7.17
72236;BMP280;60146;52.498;13.462;2023-03-04T21:44:07;101262.41;;;7.13
72236;BMP280;60146;52.498;13.462;2023-03-04T21:46:32;101264.78;;;7.15
72236;BMP280;60146;52.498;13.462;2023-03-04T21:49:00;101270.22;;;7.13
72236;BMP280;60146;52.498;13.462;2023-03-04T21:51:25;101267.09;;;7.11
72236;BMP280;60146;52.498;13.462;2023-03-04T21:53:51;101266.06;;;7.12
72236;BMP280;60146;52.498;13.462;2023-03-04T21:56:16;101251.81;;;7.20
72236;BMP280;60146;52.498;13.462;2023-03-04T21:58:42;101269.09;;;7.25
72236;BMP280;60146;52.498;13.462;2023-03-04T22:01:09;101262.13;;;7.31
72236;BMP280;60146;52.498;13.462;2023-03-04T22:03:37;101255.66;;;7.33
72236;BMP280;60146;52.498;13.462;2023-03-04T22:06:05;101253.66;;;7.40
72236;BMP280;60146;52.498;13.462;2023-03-04T22:08:30;101252.16;;;7.44
72236;BMP280;60146;52.498;13.462;2023-03-04T22:10:56;101255.03;;;7.26
72236;BMP280;60146;52.498;13.462;2023-03-04T22:13:21;101246.38;;;7.21
72236;BMP280;60146;52.498;13.462;2023-03-04T22:15:46;101239.09;;;7.23
72236;BMP280;60146;52.498;13.462;2023-03-04T22:18:13;101241.09;;;7.16
72236;BMP280;60146;52.498;13.462;2023-03-04T22:20:41;101246.59;;;7.20
72236;BMP280;60146;52.498;13.462;2023-03-04T22:23:07;101238.41;;;7.27
72236;BMP280;60146;52.498;13.462;2023-03-04T22:25:34;101239.09;;;7.23
72236;BMP280;60146;52.498;13.462;2023-03-04T22:27:59;101245.16;;;7.28
72236;BMP280;60146;52.498;13.462;2023-03-04T22:30:25;101241.59;;;7.34
72236;BMP280;60146;52.498;13.462;2023-03-04T22:32:50;101238.84;;;7.24
72236;BMP280;60146;52.498;13.462;2023-03-04T22:35:16;101244.06;;;7.24
72236;BMP280;60146;52.498;13.462;2023-03-04T22:37:42;101229.88;;;7.16
72236;BMP280;60146;52.498;13.462;2023-03-04T22:40:09;101231.75;;;7.20
72236;BMP280;60146;52.498;13.462;2023-03-04T22:42:39;101228.25;;;7.31
72236;BMP280;60146;52.498;13.462;2023-03-04T22:45:05;101231.66;;;7.31
72236;BMP280;60146;52.498;13.462;2023-03-04T22:47:30;101223.69;;;7.22
72236;BMP280;60146;52.498;13.462;2023-03-04T22:49:55;101229.91;;;7.00
72236;BMP280;60146;52.498;13.462;2023-03-04T22:52:21;101225.28;;;7.06
72236;BMP280;60146;52.498;13.462;2023-03-04T22:54:46;101226.53;;;6.99
72236;BMP280;60146;52.498;13.462;2023-03-04T22:57:11;101218.38;;;6.96
72236;BMP280;60146;52.498;13.462;2023-03-04T22:59:37;101213.91;;;6.91
72236;BMP280;60146;52.498;13.462;2023-03-04T23:02:03;101222.97;;;6.73
72236;BMP280;60146;52.498;13.462;2023-03-04T23:04:28;101213.50;;;6.67
72236;BMP280;60146;52.498;13.462;2023-03-04T23:06:54;101211.28;;;6.59
72236;BMP280;60146;52.498;13.462;2023-03-04T23:09:20;101206.56;;;6.56
72236;BMP280;60146;52.498;13.462;2023-03-04T23:11:45;101199.16;;;6.81
72236;BMP280;60146;52.498;13.462;2023-03-04T23:14:14;101197.50;;;6.91
72236;BMP280;60146;52.498;13.462;2023-03-04T23:16:40;101200.31;;;6.89
72236;BMP280;60146;52.498;13.462;2023-03-04T23:19:14;101200.38;;;6.94
72236;BMP280;60146;52.498;13.462;2023-03-04T23:21:40;101193.75;;;6.87
72236;BMP280;60146;52.498;13.462;2023-03-04T23:24:07;101197.56;;;6.80
72236;BMP280;60146;52.498;13.462;2023-03-04T23:26:35;101188.78;;;6.85
72236;BMP280;60146;52.498;13.462;2023-03-04T23:29:02;101190.63;;;6.69
72236;BMP280;60146;52.498;13.462;2023-03-04T23:31:28;101191.66;;;6.68
72236;BMP280;60146;52.498;13.462;2023-03-04T23:33:56;101184.31;;;6.65
72236;BMP280;60146;52.498;13.462;2023-03-04T23:36:24;101177.94;;;6.56
72236;BMP280;60146;52.498;13.462;2023-03-04T23:38:51;101188.91;;;6.58
72236;BMP280;60146;52.498;13.462;2023-03-04T23:41:21;101183.53;;;6.48
72236;BMP280;60146;52.498;13.462;2023-03-04T23:43:47;101184.31;;;6.65
72236;BMP280;60146;52.498;13.462;2023-03-04T23:46:13;101180.63;;;6.45
72236;BMP280;60146;52.498;13.462;2023-03-04T23:48:40;101181.44;;;6.45
72236;BMP280;60146;52.498;13.462;2023-03-04T23:51:15;101173.91;;;6.49
72236;BMP280;60146;52.498;13.462;2023-03-04T23:53:40;101182.72;;;6.48
72236;BMP280;60146;52.498;13.462;2023-03-04T23:56:11;101181.03;;;6.53
72236;BMP280;60146;52.498;13.462;2023-03-04T23:58:37;101181.47;;;6.50
